Airfield :
LOGIN :

Register | Disclaimer

   EN    FR    IT 

 










Legend :    VFR   Marginal VFR   IFR   Intensive IFR   Very Intensive IFR
Visi :
Ceiling :
>= 8 km
>= 3000ft
5 to 8 km
1000 to 3000 ft
1500m to 5 km
500 to 1000 ft
800 to 1500m
200 to 500 ft
< 800m
< 200 ft
Symbols :   Thunderstorms  Fog  Heavy snow  Heavy precipitations  Wind > 20 kt
SIGMETs :     Misc.  Thunderstorms  Icing  Turbulence  Mountain Waves  Volcanic Ashes






- Airport Elevation : 19 ft
- IATA code : BEB


EGPL - Benbecula

CURRENT METAR :
  • 182120Z AUTO 28028KT 9999 SCT027/// BKN040/// BKN046/// 07/03 Q1002

EXPIRED METARs :
  • 182050Z AUTO 28028G38KT 9999 FEW023/// SCT040/// 06/03 Q1002 RERA
  • 182020Z AUTO 28028KT 9999 FEW032/// 07/02 Q1002
  • 181950Z AUTO 28032KT 9999 SCT033/// 07/02 Q1001
  • 181920Z AUTO 27030KT 9999 SCT037/// 07/01 Q1001
  • 181850Z AUTO 27028KT 9999 FEW041/// 06/02 Q1000

Expired Forecast.
ATIS : +44 1870 604 818



MET'MAP, your aeronautical weather chart ! - Copyright ORBIFLY December 2007 - Disclaimer

ORBIFLY MET'MAP TEAM :

Programming & Development : Alexandra Zaïnal
Concept & original design : Baudouin d'Aumeries
Assistance for programming : Marc-Olivier Méhu
Technical & hardware support : Manuel Goepfert

Contact : metmap@orbifly.com




SOURCES & CREDITS :

   NOAA